CheckWX is a tool to help pilots better visualize weather data.  It is not intended as a substitute for an official pre-flight weather briefing.

13:04:05 UTC

VVCR TAF
Cam Ranh Airport
Nha Trang, Vietnam
TAF VVCR 241100Z 2412/2512 36006KT 9999 SCT017 BECMG 2421/2422 VRB02KT BECMG 2502/2503 20010KT TEMPO 2506/2510 5000 SHRA BKN015 FEW017CB

May-24@
12:00 UTC

May-24 @ 12:00 UTC

May-24@
21:00 UTC

May-24 @ 21:00 UTC

TAF VVCR 241100Z 2412/2512 36006KT 9999 SCT017
Wind
  • 360° at 6 KTS
Cloud Levels
  • Scattered at 1,700' AGL

May-24@
21:00 UTC

May-24 @ 21:00 UTC

May-25@
02:00 UTC

May-25 @ 02:00 UTC

BECMG 2421/2422 VRB02KT

Becoming

Becoming Conditions expected by Fri, May 24, 2019 @ 22:00 UTC

Wind
  • Variable at 2 KTS
Cloud Levels
  • Scattered at 1,700' AGL

May-25@
02:00 UTC

May-25 @ 02:00 UTC

May-25@
12:00 UTC

May-25 @ 12:00 UTC

BECMG 2502/2503 20010KT

Becoming

Becoming Conditions expected by Sat, May 25, 2019 @ 03:00 UTC

Wind
  • 200° at 10 KTS
Cloud Levels
  • Scattered at 1,700' AGL

May-25@
06:00 UTC

May-25 @ 06:00 UTC

May-25@
10:00 UTC

May-25 @ 10:00 UTC

TEMPO 2506/2510 5000 SHRA BKN015 FEW017CB

Temporary

Temporary Changes expected for less than half the time period

Conditions
Rain
Cloud Levels
  • Broken at 1,500' AGL
  • Few at 1,700' AGL